Time;durP1;ratioP1;P1;durP2;ratioP2;P2;SDS_P1;SDS_P2;PMS_P1;PMS_P2;Temp;Humidity;BMP_temperature;BMP_pressure;BME280_temperature;BME280_humidity;BME280_pressure;Samples;Min_cycle;Max_cycle;Signal;HPM_P1;HPM_P2
2023/05/10 05:36:13;;;;;;;5.50;3.60;;;;;;;11.64;56.28;100802.36;109074;1273;22329;-45
2023/05/10 05:38:42;;;;;;;14.60;3.90;;;;;;;11.69;55.46;100803.24;108917;1266;23158;-45
2023/05/10 05:41:30;;;;;;;7.00;4.00;;;;;;;11.75;55.56;100803.45;108293;1276;22749;-45
2023/05/10 05:43:57;;;;;;;6.60;3.20;;;;;;;11.83;55.38;100803.85;108610;1275;23548;-45
2023/05/10 05:46:24;;;;;;;7.00;3.50;;;;;;;11.90;55.23;100805.80;109332;1279;22993;-53
2023/05/10 05:48:52;;;;;;;7.70;3.70;;;;;;;11.96;53.87;100804.94;109576;1279;23953;-53
2023/05/10 05:51:20;;;;;;;4.40;3.30;;;;;;;12.02;53.60;100805.13;109501;1267;23226;-45
2023/05/10 05:53:49;;;;;;;7.60;3.50;;;;;;;12.08;53.46;100802.70;109264;1273;22540;-45
2023/05/10 05:56:17;;;;;;;9.70;4.00;;;;;;;12.14;53.35;100804.80;109192;1276;22628;-45
2023/05/10 05:58:44;;;;;;;7.70;4.10;;;;;;;12.25;53.54;100804.12;109615;1273;22401;-54
2023/05/10 06:01:12;;;;;;;4.00;2.90;;;;;;;12.38;53.22;100797.31;109696;1276;22413;-54
2023/05/10 06:03:39;;;;;;;9.50;3.50;;;;;;;12.51;51.97;100795.39;109248;1278;22305;-46
2023/05/10 06:06:07;;;;;;;6.00;4.20;;;;;;;12.63;51.73;100793.98;109331;1273;22504;-46
2023/05/10 06:08:34;;;;;;;8.40;3.80;;;;;;;12.75;50.97;100794.15;109736;1273;22398;-51
2023/05/10 06:11:04;;;;;;;5.90;3.50;;;;;;;12.85;49.92;100792.91;109189;1273;23325;-52
2023/05/10 06:13:56;;;;;;;4.80;3.00;;;;;;;12.98;49.76;100795.52;109484;1273;22414;-52
2023/05/10 06:16:26;;;;;;;6.40;3.30;;;;;;;13.07;49.81;100794.45;109462;1273;22453;-44
2023/05/10 06:19:02;;;;;;;6.10;3.90;;;;;;;13.16;49.61;100793.02;109099;1273;22832;-45
2023/05/10 06:22:27;;;;;;;4.30;3.00;;;;;;;13.28;48.58;100789.34;108888;1272;23164;-43
2023/05/10 06:25:45;;;;;;;7.70;3.70;;;;;;;13.41;48.25;100790.17;108875;1276;23113;-45
2023/05/10 06:32:32;;;;;;;11.90;3.30;;;;;;;13.89;47.03;100786.44;109713;1273;22810;-54
2023/05/10 06:35:10;;;;;;;11.90;3.50;;;;;;;14.06;46.18;100785.45;109020;1273;22758;-56
2023/05/10 06:37:42;;;;;;;15.90;5.50;;;;;;;14.11;45.98;100784.91;108794;1274;25458;-46
2023/05/10 06:40:09;;;;;;;13.80;4.20;;;;;;;14.14;45.69;100782.60;109669;1275;23379;-56
2023/05/10 06:42:37;;;;;;;7.70;3.60;;;;;;;14.19;45.49;100780.29;109568;1273;22368;-54
2023/05/10 06:45:11;;;;;;;9.50;4.60;;;;;;;14.29;45.63;100777.58;109540;1275;22482;-55
2023/05/10 06:47:50;;;;;;;9.60;4.10;;;;;;;14.36;45.48;100779.63;109678;1273;22399;-45
2023/05/10 06:50:36;;;;;;;7.00;3.40;;;;;;;14.36;44.35;100778.38;109720;1280;22368;-54
2023/05/10 06:53:03;;;;;;;4.70;2.90;;;;;;;14.41;44.02;100777.48;109747;1277;22343;-47
2023/05/10 06:55:30;;;;;;;4.80;2.70;;;;;;;14.54;43.70;100779.69;109687;1272;22166;-54
2023/05/10 06:57:57;;;;;;;12.90;3.40;;;;;;;14.60;42.99;100776.29;109758;1275;22283;-46
2023/05/10 07:00:24;;;;;;;6.10;3.30;;;;;;;14.55;42.77;100774.42;109646;1275;23260;-46
2023/05/10 07:02:52;;;;;;;8.80;3.30;;;;;;;14.43;42.90;100772.20;109267;1274;22692;-44
2023/05/10 07:10:02;;;;;;;10.80;3.40;;;;;;;14.31;42.69;100776.32;109733;1268;22434;-52
2023/05/10 07:17:25;;;;;;;6.80;2.70;;;;;;;14.18;43.14;100778.70;109382;1273;23360;-46
2023/05/10 07:20:29;;;;;;;5.40;2.60;;;;;;;14.11;43.14;100779.64;109651;1273;22418;-52
2023/05/10 07:24:07;;;;;;;5.60;2.70;;;;;;;14.09;42.94;100778.25;109730;1274;22770;-44
2023/05/10 07:26:46;;;;;;;18.40;3.10;;;;;;;14.10;42.64;100777.55;109318;1278;23202;-52
2023/05/10 07:29:13;;;;;;;5.70;2.60;;;;;;;14.12;42.23;100780.69;109762;1276;22359;-53
2023/05/10 07:31:56;;;;;;;8.10;2.70;;;;;;;14.14;41.39;100782.07;108759;1273;22846;-54
2023/05/10 07:34:49;;;;;;;9.90;3.10;;;;;;;14.10;40.63;100784.73;109177;1275;22658;-47
2023/05/10 07:37:28;;;;;;;;;;;;;;;14.06;40.46;100786.52;109435;1275;23275;-53
2023/05/10 07:39:57;;;;;;;6.60;2.50;;;;;;;14.03;40.05;100789.16;107933;1272;22510;-45
2023/05/10 07:42:24;;;;;;;2.80;2.30;;;;;;;14.02;40.11;100787.05;109698;1275;22173;-45
2023/05/10 07:44:51;;;;;;;7.00;2.30;;;;;;;14.01;40.59;100790.21;108961;1277;22508;-52
2023/05/10 07:47:24;;;;;;;2.60;2.10;;;;;;;14.00;40.85;100792.16;108136;1273;23016;-52
2023/05/10 07:49:51;;;;;;;4.00;2.30;;;;;;;13.99;41.04;100793.05;108877;1273;23870;-52
2023/05/10 07:52:25;;;;;;;7.20;2.70;;;;;;;13.99;41.38;100794.09;109563;1276;22400;-52
2023/05/10 07:54:52;;;;;;;11.50;2.50;;;;;;;13.99;41.66;100792.00;109631;1273;22398;-53
2023/05/10 07:57:19;;;;;;;4.60;2.40;;;;;;;13.99;41.60;100791.30;109492;1276;26479;-54
2023/05/10 07:59:52;;;;;;;6.70;1.90;;;;;;;13.99;40.81;100791.30;108977;1273;22901;-45
2023/05/10 08:02:38;;;;;;;7.10;2.20;;;;;;;13.94;40.72;100793.25;109595;1273;22577;-45
2023/05/10 08:05:07;;;;;;;4.80;2.20;;;;;;;13.94;40.44;100796.58;109218;1274;22402;-45
2023/05/10 08:07:34;;;;;;;3.40;2.00;;;;;;;13.96;40.41;100803.58;109649;1274;22374;-44
2023/05/10 08:10:02;;;;;;;10.30;2.30;;;;;;;13.94;41.13;100807.45;109392;1273;22527;-46
2023/05/10 08:12:30;;;;;;;3.50;2.20;;;;;;;13.85;41.91;100804.70;109676;1274;22538;-49
2023/05/10 08:14:59;;;;;;;6.20;2.40;;;;;;;13.77;42.44;100808.59;109032;1277;24643;-54
2023/05/10 08:17:29;;;;;;;8.40;2.70;;;;;;;13.74;43.31;100810.36;108700;1278;22526;-54
2023/05/10 08:19:58;;;;;;;5.60;2.20;;;;;;;13.74;44.16;100814.05;109338;1275;22365;-46
2023/05/10 08:22:26;;;;;;;2.80;1.70;;;;;;;13.78;44.71;100812.10;109767;1275;22217;-45
2023/05/10 08:24:54;;;;;;;2.80;1.90;;;;;;;13.86;44.16;100806.27;109104;1274;22925;-54
2023/05/10 08:27:21;;;;;;;1.90;1.70;;;;;;;13.94;43.21;100810.79;107486;1280;22571;-46
2023/05/10 08:29:49;;;;;;;5.20;2.20;;;;;;;14.02;42.45;100808.28;109376;1275;22366;-53
2023/05/10 08:32:18;;;;;;;8.10;1.90;;;;;;;14.15;42.03;100806.27;109286;1273;22320;-54
2023/05/10 08:34:56;;;;;;;3.60;2.10;;;;;;;14.31;41.55;100810.90;109520;1273;22449;-54
2023/05/10 08:37:25;;;;;;;3.20;1.80;;;;;;;14.44;40.20;100811.16;109731;1276;23196;-54
2023/05/10 08:39:55;;;;;;;4.20;1.60;;;;;;;14.54;38.82;100810.77;108485;1273;22348;-46
2023/05/10 08:42:22;;;;;;;2.60;1.90;;;;;;;14.62;39.08;100811.73;109803;1275;22405;-54
2023/05/10 08:44:49;;;;;;;5.40;2.20;;;;;;;14.66;39.63;100808.71;109247;1273;22944;-54
2023/05/10 08:47:17;;;;;;;5.90;2.50;;;;;;;14.68;39.09;100812.05;109627;1275;22267;-54
2023/05/10 08:49:54;;;;;;;2.90;1.70;;;;;;;14.73;39.32;100807.08;109404;1273;22412;-44
2023/05/10 08:52:40;;;;;;;7.60;2.10;;;;;;;14.84;38.76;100796.98;109171;1277;22998;-53
2023/05/10 08:55:07;;;;;;;2.60;1.80;;;;;;;14.92;38.41;100799.36;109003;1273;23205;-53
2023/05/10 08:57:35;;;;;;;2.50;2.00;;;;;;;15.02;38.84;100795.21;109325;1273;23130;-54
2023/05/10 09:00:03;;;;;;;6.60;1.90;;;;;;;15.20;38.80;100791.51;109652;1275;22446;-53
2023/05/10 09:02:30;;;;;;;4.40;2.10;;;;;;;15.34;37.15;100786.60;109649;1276;22422;-45
2023/05/10 09:04:58;;;;;;;4.90;1.80;;;;;;;15.50;36.89;100784.30;109421;1275;23369;-54
2023/05/10 09:07:51;;;;;;;14.10;3.00;;;;;;;15.66;36.32;100776.57;109583;1273;22454;-45
2023/05/10 09:10:25;;;;;;;2.50;1.80;;;;;;;15.78;35.03;100775.90;108895;1275;22265;-46
2023/05/10 09:12:53;;;;;;;4.60;2.00;;;;;;;15.81;35.34;100774.79;109623;1279;22659;-54
2023/05/10 09:15:22;;;;;;;2.60;1.70;;;;;;;15.87;34.49;100773.10;109403;1277;22971;-54
2023/05/10 09:17:51;;;;;;;4.40;2.00;;;;;;;15.93;33.88;100770.91;109181;1273;22214;-53
2023/05/10 09:20:19;;;;;;;5.60;1.50;;;;;;;16.01;34.21;100770.45;109445;1276;23251;-44
2023/05/10 09:22:47;;;;;;;2.90;1.60;;;;;;;16.19;34.18;100763.32;109169;1276;23040;-45
2023/05/10 09:25:16;;;;;;;7.60;2.10;;;;;;;16.35;32.90;100764.46;108173;1273;25236;-53
2023/05/10 09:27:54;;;;;;;2.90;1.70;;;;;;;16.48;32.61;100763.20;108573;1273;22655;-53
2023/05/10 09:30:29;;;;;;;2.60;2.00;;;;;;;16.62;32.50;100763.84;109279;1272;22930;-54
2023/05/10 09:32:58;;;;;;;5.90;2.10;;;;;;;16.79;34.06;100757.58;109383;1273;22569;-53
2023/05/10 09:35:28;;;;;;;3.70;1.70;;;;;;;16.96;33.65;100761.30;109438;1275;22218;-54
2023/05/10 09:37:59;;;;;;;4.10;1.70;;;;;;;17.06;33.22;100754.60;109682;1273;22878;-54
2023/05/10 09:41:40;;;;;;;8.40;2.10;;;;;;;17.20;32.68;100745.85;109221;1273;23350;-53
2023/05/10 09:53:31;;;;;;;3.40;1.90;;;;;;;17.06;31.29;100740.33;109638;1273;22491;-44
2023/05/10 09:56:34;;;;;;;3.60;1.90;;;;;;;16.98;31.59;100738.53;109693;1270;23549;-44
2023/05/10 09:59:10;;;;;;;2.20;1.60;;;;;;;16.99;31.10;100739.05;109285;1276;22485;-53
2023/05/10 10:01:48;;;;;;;6.40;1.80;;;;;;;16.95;31.44;100740.54;109599;1275;23190;-44
2023/05/10 10:04:17;;;;;;;7.90;1.90;;;;;;;16.92;31.74;100735.84;109516;1273;22456;-46
2023/05/10 10:06:45;;;;;;;5.70;2.00;;;;;;;16.95;31.79;100735.44;109158;1275;22569;-54
2023/05/10 10:09:12;;;;;;;5.20;1.70;;;;;;;16.98;32.07;100735.71;109128;1278;22854;-45
2023/05/10 10:11:41;;;;;;;2.20;1.50;;;;;;;16.98;31.74;100734.13;109617;1275;22240;-45
2023/05/10 10:14:08;;;;;;;8.20;2.10;;;;;;;16.93;31.80;100735.81;109832;1275;22376;-43
2023/05/10 10:16:35;;;;;;;6.20;1.80;;;;;;;16.93;32.30;100734.23;109610;1272;22277;-53
2023/05/10 10:19:02;;;;;;;4.60;1.70;;;;;;;16.97;32.00;100731.67;109582;1276;22938;-54
2023/05/10 10:21:30;;;;;;;9.00;3.90;;;;;;;17.04;31.34;100729.44;109497;1275;22337;-53
2023/05/10 10:23:57;;;;;;;3.80;2.20;;;;;;;17.15;31.50;100730.10;109618;1280;22386;-48
2023/05/10 10:26:24;;;;;;;2.40;1.80;;;;;;;17.13;31.34;100728.73;109676;1280;22365;-45
2023/05/10 10:29:04;;;;;;;9.70;2.10;;;;;;;17.08;31.74;100732.36;109542;1273;23290;-46
2023/05/10 10:31:46;;;;;;;5.30;2.00;;;;;;;17.07;32.12;100728.50;109664;1273;22304;-46
2023/05/10 10:34:31;;;;;;;3.50;1.70;;;;;;;16.99;32.47;100729.69;109542;1273;22322;-47
2023/05/10 10:37:03;;;;;;;4.50;1.50;;;;;;;17.02;31.72;100729.84;109571;1278;23165;-45
2023/05/10 10:39:31;;;;;;;4.40;1.70;;;;;;;17.06;31.71;100725.17;109493;1276;22216;-47
2023/05/10 10:41:58;;;;;;;6.10;2.50;;;;;;;17.04;31.46;100726.25;109557;1278;22474;-45
2023/05/10 10:44:35;;;;;;;1.40;1.30;;;;;;;17.11;31.10;100723.84;109168;1273;22872;-53
2023/05/10 10:47:12;;;;;;;3.80;1.70;;;;;;;17.15;31.19;100719.16;109661;1275;23053;-56
2023/05/10 10:49:39;;;;;;;3.20;1.40;;;;;;;17.12;31.26;100720.13;109652;1274;22790;-57
2023/05/10 10:52:34;;;;;;;2.60;1.50;;;;;;;17.13;31.04;100718.34;109734;1280;22433;-55
2023/05/10 10:55:08;;;;;;;5.90;1.60;;;;;;;17.18;30.47;100717.88;109654;1275;22428;-46
2023/05/10 10:57:47;;;;;;;2.30;1.50;;;;;;;17.33;30.03;100718.09;109538;1273;22942;-55
2023/05/10 11:00:21;;;;;;;2.00;1.50;;;;;;;17.46;29.62;100714.45;109619;1279;22393;-46
2023/05/10 11:03:20;;;;;;;3.30;2.00;;;;;;;17.54;29.14;100716.41;109683;1280;22430;-46
2023/05/10 11:05:48;;;;;;;5.00;1.60;;;;;;;17.48;29.90;100714.41;109670;1280;22413;-46
2023/05/10 11:08:19;;;;;;;2.60;1.60;;;;;;;17.35;28.69;100717.52;109712;1280;22374;-45
2023/05/10 11:10:59;;;;;;;3.80;1.40;;;;;;;17.07;27.28;100712.45;109697;1280;22409;-46
2023/05/10 11:13:31;;;;;;;1.90;1.30;;;;;;;16.84;27.10;100712.94;109652;1280;23208;-46
2023/05/10 11:15:59;;;;;;;4.60;1.60;;;;;;;16.66;27.17;100706.88;109614;1279;22389;-46
2023/05/10 11:18:27;;;;;;;11.70;5.20;;;;;;;16.52;27.04;100706.95;109528;1280;23010;-45
2023/05/10 11:21:05;;;;;;;2.60;2.00;;;;;;;16.39;27.38;100712.48;109691;1279;23003;-45
2023/05/10 11:23:33;;;;;;;2.10;1.60;;;;;;;16.32;28.18;100712.41;109625;1280;22737;-55
2023/05/10 11:26:01;;;;;;;6.00;2.20;;;;;;;16.28;28.84;100712.30;109656;1279;22344;-45
2023/05/10 11:28:28;;;;;;;13.20;1.90;;;;;;;16.24;28.96;100710.27;109712;1280;22803;-45
2023/05/10 11:30:55;;;;;;;8.20;4.30;;;;;;;16.28;28.35;100710.19;109731;1279;22351;-46
2023/05/10 11:33:22;;;;;;;6.30;3.30;;;;;;;16.38;27.84;100710.20;109829;1280;23057;-45
2023/05/10 11:35:49;;;;;;;2.40;1.70;;;;;;;16.43;27.15;100706.42;109764;1280;22204;-54
2023/05/10 11:38:16;;;;;;;2.50;1.40;;;;;;;16.45;27.12;100705.33;109874;1280;22297;-55
2023/05/10 11:40:43;;;;;;;2.70;1.20;;;;;;;16.53;27.53;100705.02;109803;1276;23153;-46
2023/05/10 11:43:11;;;;;;;1.70;1.20;;;;;;;16.61;27.79;100704.50;109887;1280;22495;-55
2023/05/10 11:45:38;;;;;;;1.60;1.40;;;;;;;16.75;27.86;100704.27;109960;1279;22348;-45
2023/05/10 11:48:05;;;;;;;10.00;1.80;;;;;;;16.90;27.24;100703.98;109898;1280;22257;-55
2023/05/10 11:50:32;;;;;;;4.50;1.80;;;;;;;17.00;26.59;100705.38;109949;1280;22326;-45
2023/05/10 11:52:59;;;;;;;2.10;1.10;;;;;;;17.07;26.64;100704.35;109910;1280;22217;-55
2023/05/10 11:55:26;;;;;;;3.60;2.00;;;;;;;17.08;26.86;100705.58;109948;1280;22263;-54
2023/05/10 11:57:54;;;;;;;2.30;1.20;;;;;;;17.09;26.71;100706.60;109488;1280;22979;-55
2023/05/10 12:00:21;;;;;;;6.70;1.90;;;;;;;17.08;26.85;100703.80;108577;1279;23013;-46
2023/05/10 12:02:48;;;;;;;2.90;1.50;;;;;;;17.02;26.73;100702.33;107944;1280;22553;-46
2023/05/10 12:05:15;;;;;;;6.30;4.20;;;;;;;16.89;25.83;100702.95;107726;1275;24212;-48
2023/05/10 12:07:42;;;;;;;10.40;2.10;;;;;;;16.69;26.68;100702.08;107525;1280;24235;-46
2023/05/10 12:10:14;;;;;;;4.30;1.80;;;;;;;16.60;27.31;100705.05;106639;1280;25221;-48
2023/05/10 12:12:45;;;;;;;6.10;1.70;;;;;;;16.55;27.04;100703.21;109298;1280;22416;-45
2023/05/10 12:15:22;;;;;;;3.10;1.50;;;;;;;16.52;27.30;100704.48;109439;1280;22352;-47
2023/05/10 12:17:49;;;;;;;5.70;1.60;;;;;;;16.49;27.14;100704.01;107189;1280;22783;-47
2023/05/10 12:20:27;;;;;;;6.70;1.80;;;;;;;16.45;27.13;100702.14;108480;1280;23545;-47
2023/05/10 12:22:55;;;;;;;8.30;1.60;;;;;;;16.46;27.29;100703.89;109757;1279;22388;-46
2023/05/10 12:25:31;;;;;;;2.00;1.20;;;;;;;16.51;26.57;100697.64;109890;1276;22469;-46
2023/05/10 12:28:04;;;;;;;4.10;1.60;;;;;;;16.52;26.67;100697.61;109634;1280;22159;-46
2023/05/10 12:30:33;;;;;;;1.90;1.20;;;;;;;16.61;26.89;100695.89;109897;1278;22248;-55
2023/05/10 12:33:09;;;;;;;4.80;2.30;;;;;;;16.69;26.66;100695.38;109946;1280;22719;-55
2023/05/10 12:35:45;;;;;;;2.60;1.30;;;;;;;16.66;26.55;100695.42;109286;1281;22296;-56
2023/05/10 12:38:25;;;;;;;3.90;1.00;;;;;;;16.68;26.19;100698.23;109899;1281;22300;-56
2023/05/10 12:40:52;;;;;;;1.70;1.00;;;;;;;16.79;25.83;100694.52;109835;1282;22414;-46
2023/05/10 12:43:19;;;;;;;2.70;1.50;;;;;;;16.95;25.96;100693.31;109860;1280;23249;-45
2023/05/10 12:45:48;;;;;;;4.30;1.90;;;;;;;17.06;25.38;100686.23;109812;1281;22459;-46
